createdAt,value
2022-08-26T00:02:01.931Z,100172.25
2022-08-26T00:04:34.298Z,100181.78
2022-08-26T00:07:03.370Z,100183.41
2022-08-26T00:09:38.881Z,100176.75
2022-08-26T00:12:12.236Z,100186.66
2022-08-26T00:14:42.273Z,100179.84
2022-08-26T00:17:12.103Z,100181.78
2022-08-26T00:19:42.592Z,100186.69
2022-08-26T00:22:12.195Z,100180.13
2022-08-26T00:24:41.257Z,100184.88
2022-08-26T00:27:17.045Z,100185.34
2022-08-26T00:29:46.416Z,100193.22
2022-08-26T00:32:15.568Z,100190.75
2022-08-26T00:34:46.384Z,100189.00
2022-08-26T00:37:16.396Z,100183.47
2022-08-26T00:39:45.658Z,100189.25
2022-08-26T00:42:14.730Z,100194.19
2022-08-26T00:44:44.854Z,100191.09
2022-08-26T00:47:21.585Z,100188.25
2022-08-26T00:49:52.843Z,100194.44
2022-08-26T00:52:24.399Z,100199.19
2022-08-26T00:55:02.578Z,100197.19
2022-08-26T00:57:32.911Z,100192.25
2022-08-26T01:00:05.748Z,100195.25
2022-08-26T01:02:34.832Z,100187.69
2022-08-26T01:05:08.394Z,100199.31
2022-08-26T01:07:37.494Z,100200.53
2022-08-26T01:10:10.888Z,100197.09
2022-08-26T01:12:44.061Z,100189.47
2022-08-26T01:15:18.324Z,100185.91
2022-08-26T01:17:47.649Z,100181.56
2022-08-26T01:20:30.458Z,100175.66
2022-08-26T01:23:03.205Z,100185.28
2022-08-26T01:25:35.380Z,100180.53
2022-08-26T01:28:07.721Z,100189.81
2022-08-26T01:30:39.700Z,100187.59
2022-08-26T01:33:17.061Z,100184.56
2022-08-26T01:35:46.541Z,100186.41
2022-08-26T01:38:19.771Z,100187.44
2022-08-26T01:40:49.499Z,100195.66
2022-08-26T01:43:23.389Z,100193.72
2022-08-26T01:45:55.055Z,100192.81
2022-08-26T01:48:29.504Z,100195.19
2022-08-26T01:50:59.572Z,100190.19
2022-08-26T01:53:30.960Z,100185.09
2022-08-26T01:56:03.962Z,100186.91
2022-08-26T01:58:37.782Z,100189.63
2022-08-26T02:01:09.615Z,100190.06
2022-08-26T02:03:51.003Z,100186.56
2022-08-26T02:06:21.343Z,100174.47
2022-08-26T02:08:55.595Z,100176.00
2022-08-26T02:11:24.897Z,100180.06
2022-08-26T02:13:59.821Z,100195.31
2022-08-26T02:16:33.847Z,100191.16
2022-08-26T02:19:06.064Z,100192.88
2022-08-26T02:21:37.557Z,100183.94
2022-08-26T02:24:13.377Z,100189.94
2022-08-26T02:26:43.226Z,100191.88
2022-08-26T02:29:19.762Z,100202.84
2022-08-26T02:31:50.414Z,100200.41
2022-08-26T02:34:28.238Z,100195.66
2022-08-26T02:37:02.338Z,100195.59
2022-08-26T02:39:35.080Z,100192.81
2022-08-26T02:42:05.473Z,100188.13
2022-08-26T02:44:34.806Z,100189.13
2022-08-26T02:47:05.211Z,100191.13
2022-08-26T02:49:34.330Z,100192.69
2022-08-26T02:52:03.482Z,100195.03
2022-08-26T02:54:33.954Z,100191.38
2022-08-26T02:57:03.264Z,100189.66
2022-08-26T02:59:32.625Z,100199.81
2022-08-26T03:02:03.216Z,100198.88
2022-08-26T03:04:33.361Z,100205.81
2022-08-26T03:07:03.109Z,100211.75
2022-08-26T03:09:34.393Z,100204.81
2022-08-26T03:12:03.613Z,100207.75
2022-08-26T03:14:32.965Z,100205.38
2022-08-26T03:17:02.434Z,100214.91
2022-08-26T03:19:33.148Z,100202.72
2022-08-26T03:22:04.928Z,100205.38
2022-08-26T03:24:35.335Z,100213.81
2022-08-26T03:27:05.936Z,100209.44
2022-08-26T03:29:53.961Z,100215.16
2022-08-26T03:32:22.945Z,100210.75
2022-08-26T03:34:56.650Z,100209.56
2022-08-26T03:37:25.639Z,100212.47
2022-08-26T03:39:56.498Z,100211.56
2022-08-26T03:42:25.576Z,100198.03
2022-08-26T03:44:54.571Z,100205.97
2022-08-26T03:47:23.541Z,100212.06
2022-08-26T03:49:52.793Z,100208.63
2022-08-26T03:52:22.502Z,100206.69
2022-08-26T03:54:51.496Z,100218.41
2022-08-26T03:57:21.912Z,100214.81
2022-08-26T03:59:51.480Z,100216.72
2022-08-26T04:02:20.964Z,100215.91
2022-08-26T04:04:50.060Z,100207.34
2022-08-26T04:07:19.262Z,100210.00
2022-08-26T04:09:48.805Z,100210.16
2022-08-26T04:12:17.831Z,100212.66
2022-08-26T04:14:48.273Z,100210.13
2022-08-26T04:17:17.333Z,100207.44
2022-08-26T04:19:46.443Z,100212.66
2022-08-26T04:22:15.656Z,100212.72
2022-08-26T04:24:53.432Z,100216.97
2022-08-26T04:27:22.402Z,100221.28
2022-08-26T04:29:55.219Z,100215.66
2022-08-26T04:32:24.414Z,100215.47
2022-08-26T04:34:53.700Z,100215.09
2022-08-26T04:37:22.764Z,100221.56
2022-08-26T04:39:53.554Z,100213.88
2022-08-26T04:42:23.267Z,100225.03
2022-08-26T04:44:56.588Z,100220.38
2022-08-26T04:47:29.198Z,100222.41
2022-08-26T04:50:01.929Z,100226.38
2022-08-26T04:52:31.663Z,100219.06
2022-08-26T04:55:00.741Z,100229.47
2022-08-26T04:57:29.802Z,100225.19
2022-08-26T05:00:00.718Z,100219.72
2022-08-26T05:02:31.641Z,100232.75
2022-08-26T05:05:01.919Z,100224.47
2022-08-26T05:07:32.743Z,100217.38
2022-08-26T05:10:01.882Z,100222.31
2022-08-26T05:12:32.863Z,100224.44
2022-08-26T05:15:03.287Z,100223.59
2022-08-26T05:17:33.492Z,100221.44
2022-08-26T05:20:02.492Z,100226.50
2022-08-26T05:22:33.051Z,100228.13
2022-08-26T05:25:02.105Z,100227.97
2022-08-26T05:27:31.509Z,100230.75
2022-08-26T05:30:03.433Z,100226.75
2022-08-26T05:32:33.253Z,100225.00
2022-08-26T05:35:02.381Z,100226.47
2022-08-26T05:37:31.702Z,100235.53
2022-08-26T05:40:00.902Z,100232.22
2022-08-26T05:42:34.820Z,100240.81
2022-08-26T05:45:06.647Z,100237.47
2022-08-26T05:47:35.968Z,100238.13
2022-08-26T05:50:05.823Z,100235.38
2022-08-26T05:52:34.984Z,100236.22
2022-08-26T05:55:03.967Z,100233.03
2022-08-26T05:57:35.368Z,100236.25
2022-08-26T06:00:09.819Z,100227.88
2022-08-26T06:02:41.192Z,100240.84
2022-08-26T06:05:10.688Z,100237.28
2022-08-26T06:07:57.460Z,100232.47
2022-08-26T06:10:32.670Z,100236.69
2022-08-26T06:13:09.253Z,100228.09
2022-08-26T06:15:45.731Z,100234.25
2022-08-26T06:18:16.823Z,100239.59
2022-08-26T06:20:56.900Z,100239.91
2022-08-26T06:23:46.282Z,100233.13
2022-08-26T06:26:16.566Z,100229.81
2022-08-26T06:28:45.803Z,100230.28
2022-08-26T06:31:16.683Z,100241.31
2022-08-26T06:33:46.308Z,100238.88
2022-08-26T06:36:20.575Z,100247.16
2022-08-26T06:38:50.590Z,100246.19
2022-08-26T06:41:21.384Z,100242.03
2022-08-26T06:43:50.849Z,100250.53
2022-08-26T06:46:23.014Z,100246.34
2022-08-26T06:48:55.950Z,100255.56
2022-08-26T06:51:28.184Z,100251.34
2022-08-26T06:54:00.323Z,100249.59
2022-08-26T06:56:37.275Z,100254.19
2022-08-26T06:59:07.687Z,100247.88
2022-08-26T07:01:43.015Z,100249.72
2022-08-26T07:04:22.139Z,100247.03
2022-08-26T07:06:53.923Z,100254.31
2022-08-26T07:09:24.016Z,100245.38
2022-08-26T07:11:55.968Z,100250.81
2022-08-26T07:14:26.259Z,100243.75
2022-08-26T07:16:56.857Z,100246.50
2022-08-26T07:19:30.657Z,100243.88
2022-08-26T07:22:03.644Z,100241.41
2022-08-26T07:24:35.076Z,100244.47
2022-08-26T07:27:08.703Z,100242.84
2022-08-26T07:29:39.630Z,100242.97
2022-08-26T07:32:11.614Z,100243.03
2022-08-26T07:34:41.837Z,100241.31
2022-08-26T07:37:11.058Z,100238.00
2022-08-26T07:39:41.831Z,100243.50
2022-08-26T07:42:14.524Z,100241.63
2022-08-26T07:44:44.896Z,100256.78
2022-08-26T07:47:24.994Z,100242.50
2022-08-26T07:49:56.101Z,100247.88
2022-08-26T07:52:27.439Z,100244.41
2022-08-26T07:54:58.382Z,100247.38
2022-08-26T07:57:27.642Z,100242.09
2022-08-26T07:59:57.231Z,100246.59
2022-08-26T08:02:29.237Z,100243.88
2022-08-26T08:04:59.570Z,100239.53
2022-08-26T08:07:38.746Z,100234.22
2022-08-26T08:10:19.215Z,100231.50
2022-08-26T08:12:51.701Z,100234.34
2022-08-26T08:15:25.054Z,100237.16
2022-08-26T08:17:58.847Z,100228.28
2022-08-26T08:20:30.208Z,100232.66
2022-08-26T08:22:59.533Z,100227.22
2022-08-26T08:25:29.324Z,100229.94
2022-08-26T08:27:58.490Z,100228.97
2022-08-26T08:30:28.201Z,100219.88
2022-08-26T08:32:58.653Z,100225.47
2022-08-26T08:35:28.723Z,100228.13
2022-08-26T08:37:58.874Z,100221.53
2022-08-26T08:40:29.320Z,100217.06
2022-08-26T08:43:03.988Z,100220.78
2022-08-26T08:45:40.581Z,100218.28
2022-08-26T08:48:20.011Z,100222.03
2022-08-26T08:50:55.507Z,100215.84
2022-08-26T08:53:33.000Z,100214.03
2022-08-26T08:56:12.588Z,100214.03
2022-08-26T08:58:52.055Z,100204.13
2022-08-26T09:01:29.582Z,100200.66
2022-08-26T09:04:18.946Z,100200.78
2022-08-26T09:06:53.046Z,100205.28
2022-08-26T09:09:31.282Z,100197.25
2022-08-26T09:12:03.110Z,100202.69
2022-08-26T09:14:33.210Z,100203.53
2022-08-26T09:17:09.006Z,100200.00
2022-08-26T09:19:44.329Z,100204.53
2022-08-26T09:22:29.663Z,100198.19
2022-08-26T09:24:58.641Z,100200.94
2022-08-26T09:27:42.665Z,100200.94
2022-08-26T09:30:15.309Z,100199.16
2022-08-26T09:32:55.940Z,100198.22
2022-08-26T09:35:34.179Z,100191.03
2022-08-26T09:38:03.198Z,100193.75
2022-08-26T09:40:35.299Z,100200.97
2022-08-26T09:43:11.515Z,100199.19
2022-08-26T09:45:51.123Z,100191.94
2022-08-26T09:48:30.254Z,100193.75
2022-08-26T09:51:03.565Z,100180.22
2022-08-26T09:53:36.744Z,100186.50
2022-08-26T09:56:16.884Z,100181.91
2022-08-26T09:58:48.434Z,100183.81
2022-08-26T10:01:30.412Z,100179.34
2022-08-26T10:04:09.918Z,100177.44
2022-08-26T10:06:43.389Z,100174.63
2022-08-26T10:09:17.402Z,100172.69
2022-08-26T10:11:52.207Z,100158.16
2022-08-26T10:14:26.375Z,100176.41
2022-08-26T10:17:03.408Z,100185.63
2022-08-26T10:19:41.774Z,100183.84
2022-08-26T10:22:36.601Z,100173.03
2022-08-26T10:25:12.490Z,100169.34
2022-08-26T10:27:51.132Z,100162.91
2022-08-26T10:30:30.546Z,100159.88
2022-08-26T10:33:03.843Z,100164.22
2022-08-26T10:35:36.267Z,100160.13
2022-08-26T10:38:12.326Z,100163.97
2022-08-26T10:40:53.124Z,100160.38
2022-08-26T10:43:26.797Z,100156.63
2022-08-26T10:46:00.763Z,100156.59
2022-08-26T10:48:40.604Z,100152.13
2022-08-26T10:51:11.556Z,100145.03
2022-08-26T10:53:52.908Z,100136.06
2022-08-26T10:56:34.211Z,100140.28
2022-08-26T10:59:12.550Z,100137.03
2022-08-26T11:01:50.949Z,100142.81
2022-08-26T11:04:48.694Z,100131.81
2022-08-26T11:07:39.921Z,100127.41
2022-08-26T11:10:35.678Z,100133.97
2022-08-26T11:13:07.116Z,100126.84
2022-08-26T11:16:03.576Z,100117.69
2022-08-26T11:18:47.246Z,100120.38
2022-08-26T11:21:49.409Z,100115.41
2022-08-26T11:24:41.698Z,100124.63
2022-08-26T11:27:34.348Z,100126.56
2022-08-26T11:30:06.992Z,100119.88
2022-08-26T11:32:51.899Z,100111.41
2022-08-26T11:35:49.825Z,100109.88
2022-08-26T11:38:30.036Z,100110.00
2022-08-26T11:41:09.683Z,100113.56
2022-08-26T11:43:42.684Z,100104.44
2022-08-26T11:46:13.531Z,100108.84
2022-08-26T11:48:44.708Z,100106.91
2022-08-26T11:51:24.193Z,100104.09
2022-08-26T11:54:09.075Z,100105.78
2022-08-26T11:56:42.052Z,100100.06
2022-08-26T11:59:16.733Z,100094.72
2022-08-26T12:01:50.316Z,100096.66
2022-08-26T12:04:28.895Z,100099.31
2022-08-26T12:07:00.786Z,100088.44
2022-08-26T12:09:33.040Z,100089.75
2022-08-26T12:12:14.189Z,100090.97
2022-08-26T12:14:44.869Z,100090.06
2022-08-26T12:17:16.909Z,100090.94
2022-08-26T12:19:46.478Z,100094.53
2022-08-26T12:22:20.958Z,100088.28
2022-08-26T12:24:53.749Z,100089.19
2022-08-26T12:27:24.946Z,100085.56
2022-08-26T12:30:10.123Z,100089.09
2022-08-26T12:32:56.543Z,100081.84
2022-08-26T12:35:29.429Z,100076.47
2022-08-26T12:37:59.678Z,100081.91
2022-08-26T12:40:34.445Z,100074.81
2022-08-26T12:43:04.989Z,100072.19
2022-08-26T12:45:38.466Z,100067.69
2022-08-26T12:48:24.471Z,100069.50
2022-08-26T12:50:54.400Z,100070.41
2022-08-26T12:53:25.458Z,100073.09
2022-08-26T12:55:57.900Z,100073.13
2022-08-26T12:58:31.861Z,100060.50
2022-08-26T13:01:22.787Z,100058.69
2022-08-26T13:03:52.335Z,100056.84
2022-08-26T13:06:31.481Z,100059.59
2022-08-26T13:09:02.313Z,100056.91
2022-08-26T13:11:33.750Z,100061.41
2022-08-26T13:14:07.264Z,100060.50
2022-08-26T13:16:39.436Z,100052.41
2022-08-26T13:19:10.952Z,100051.50
2022-08-26T13:21:45.170Z,100056.03
2022-08-26T13:24:17.391Z,100044.28
2022-08-26T13:26:49.157Z,100049.69
2022-08-26T13:29:19.766Z,100055.13
2022-08-26T13:31:52.659Z,100049.72
2022-08-26T13:34:24.198Z,100048.81
2022-08-26T13:36:56.477Z,100040.72
2022-08-26T13:39:26.548Z,100031.69
2022-08-26T13:41:56.184Z,100037.97
2022-08-26T13:44:25.551Z,100044.28
2022-08-26T13:46:56.038Z,100039.78
2022-08-26T13:49:25.182Z,100041.56
2022-08-26T13:51:54.367Z,100041.56
2022-08-26T13:54:23.424Z,100036.13
2022-08-26T13:56:52.469Z,100037.91
2022-08-26T13:59:21.801Z,100030.69
2022-08-26T14:01:50.815Z,100030.69
2022-08-26T14:04:27.240Z,100039.63
2022-08-26T14:06:56.717Z,100027.03
2022-08-26T14:09:25.894Z,100028.81
2022-08-26T14:11:55.425Z,100027.84
2022-08-26T14:14:25.250Z,100033.22
2022-08-26T14:16:59.830Z,100024.16
2022-08-26T14:19:31.780Z,100026.84
2022-08-26T14:22:01.933Z,100027.72
2022-08-26T14:24:31.566Z,100027.75
2022-08-26T14:27:00.620Z,100029.53
2022-08-26T14:29:29.664Z,100028.59
2022-08-26T14:32:01.630Z,100030.38
2022-08-26T14:34:32.060Z,100026.75
2022-08-26T14:37:08.213Z,100024.00
2022-08-26T14:39:38.343Z,100024.75
2022-08-26T14:42:09.250Z,100030.94
2022-08-26T14:44:38.699Z,100022.81
2022-08-26T14:47:08.311Z,100029.94
2022-08-26T14:49:38.959Z,100023.63
2022-08-26T14:52:08.149Z,100024.50
2022-08-26T14:54:37.592Z,100025.53
2022-08-26T14:57:09.096Z,100030.03
2022-08-26T14:59:41.243Z,100021.94
2022-08-26T15:02:13.761Z,100038.09
2022-08-26T15:04:48.570Z,100030.03
2022-08-26T15:07:17.631Z,100030.78
2022-08-26T15:09:46.851Z,100023.53
2022-08-26T15:12:15.961Z,100032.41
2022-08-26T15:14:45.114Z,100031.53
2022-08-26T15:17:14.625Z,100026.97
2022-08-26T15:19:43.725Z,100033.16
2022-08-26T15:22:14.242Z,100033.88
2022-08-26T15:24:43.485Z,100023.94
2022-08-26T15:27:13.905Z,100028.41
2022-08-26T15:29:44.006Z,100037.34
2022-08-26T15:32:13.382Z,100036.38
2022-08-26T15:34:42.526Z,100033.53
2022-08-26T15:37:11.779Z,100041.50
2022-08-26T15:39:42.378Z,100037.81
2022-08-26T15:42:11.766Z,100040.38
2022-08-26T15:44:44.972Z,100029.41
2022-08-26T15:47:14.518Z,100039.03
2022-08-26T15:49:43.595Z,100045.84
2022-08-26T15:52:12.691Z,100047.34
2022-08-26T15:54:43.212Z,100047.88
2022-08-26T15:57:15.362Z,100051.09
2022-08-26T15:59:45.632Z,100050.81
2022-08-26T16:02:14.826Z,100050.53
2022-08-26T16:04:44.251Z,100057.41
2022-08-26T16:07:13.455Z,100050.94
2022-08-26T16:09:44.050Z,100051.69
2022-08-26T16:12:13.186Z,100047.03
2022-08-26T16:14:43.058Z,100052.97
2022-08-26T16:17:12.425Z,100048.22
2022-08-26T16:19:41.517Z,100048.69
2022-08-26T16:22:10.605Z,100047.47
2022-08-26T16:24:39.752Z,100055.16
2022-08-26T16:27:10.392Z,100051.44
2022-08-26T16:29:40.047Z,100056.38
2022-08-26T16:32:09.405Z,100052.41
2022-08-26T16:34:38.456Z,100055.69
2022-08-26T16:37:24.510Z,100050.31
2022-08-26T16:39:53.672Z,100052.72
2022-08-26T16:42:24.416Z,100060.44
2022-08-26T16:44:53.524Z,100059.31
2022-08-26T16:47:24.291Z,100060.13
2022-08-26T16:49:53.858Z,100066.38
2022-08-26T16:52:23.129Z,100065.81
2022-08-26T16:54:57.688Z,100068.22
2022-08-26T16:57:28.187Z,100065.31
2022-08-26T16:59:57.369Z,100069.47
2022-08-26T17:02:26.759Z,100063.00
2022-08-26T17:04:55.957Z,100068.25
2022-08-26T17:07:25.578Z,100065.63
2022-08-26T17:09:54.883Z,100065.72
2022-08-26T17:12:24.709Z,100066.59
2022-08-26T17:14:55.287Z,100062.94
2022-08-26T17:17:24.607Z,100063.78
2022-08-26T17:19:53.817Z,100062.03
2022-08-26T17:22:23.075Z,100068.38
2022-08-26T17:24:52.243Z,100062.66
2022-08-26T17:27:21.316Z,100062.41
2022-08-26T17:29:50.357Z,100063.25
2022-08-26T17:32:20.988Z,100064.22
2022-08-26T17:34:50.026Z,100064.22
2022-08-26T17:37:19.022Z,100054.53
2022-08-26T17:39:48.292Z,100064.03
2022-08-26T17:42:17.414Z,100063.81
2022-08-26T17:44:48.467Z,100061.91
2022-08-26T17:47:17.612Z,100062.75
2022-08-26T17:49:48.101Z,100058.28
2022-08-26T17:52:17.104Z,100054.75
2022-08-26T17:54:46.301Z,100056.25
2022-08-26T17:57:15.465Z,100054.91
2022-08-26T17:59:44.495Z,100053.53
2022-08-26T18:02:15.584Z,100062.25
2022-08-26T18:04:44.936Z,100063.56
2022-08-26T18:07:15.445Z,100062.63
2022-08-26T18:09:44.581Z,100065.41
2022-08-26T18:12:14.184Z,100062.09
2022-08-26T18:14:43.538Z,100061.50
2022-08-26T18:17:12.749Z,100060.50
2022-08-26T18:19:47.039Z,100057.09
2022-08-26T18:22:17.923Z,100060.38
2022-08-26T18:24:55.411Z,100057.47
2022-08-26T18:27:28.285Z,100064.78
2022-08-26T18:29:58.219Z,100064.78
2022-08-26T18:32:27.288Z,100067.25
2022-08-26T18:34:56.374Z,100063.66
2022-08-26T18:37:29.518Z,100061.94
2022-08-26T18:40:00.655Z,100070.78
2022-08-26T18:42:30.163Z,100066.00
2022-08-26T18:44:59.201Z,100063.81
2022-08-26T18:47:28.468Z,100073.25
2022-08-26T18:49:57.769Z,100070.66
2022-08-26T18:52:28.334Z,100074.09
2022-08-26T18:54:57.356Z,100074.72
2022-08-26T18:57:26.571Z,100077.91
2022-08-26T18:59:55.607Z,100085.75
2022-08-26T19:02:24.815Z,100081.38
2022-08-26T19:04:54.673Z,100081.84
2022-08-26T19:07:23.821Z,100083.94
2022-08-26T19:09:54.306Z,100087.34
2022-08-26T19:12:23.476Z,100090.13
2022-08-26T19:14:56.056Z,100093.22
2022-08-26T19:17:25.067Z,100088.41
2022-08-26T19:19:54.783Z,100095.13
2022-08-26T19:22:23.807Z,100093.91
2022-08-26T19:24:54.284Z,100099.81
2022-08-26T19:27:23.273Z,100098.09
2022-08-26T19:29:52.533Z,100106.94
2022-08-26T19:32:24.374Z,100115.63
2022-08-26T19:34:53.646Z,100118.34
2022-08-26T19:37:23.054Z,100118.28
2022-08-26T19:39:53.479Z,100122.81
2022-08-26T19:42:22.561Z,100127.56
2022-08-26T19:45:24.885Z,100125.69
2022-08-26T19:47:54.499Z,100131.69
2022-08-26T19:50:24.654Z,100126.13
2022-08-26T19:52:54.110Z,100126.66
2022-08-26T19:55:26.256Z,100126.94
2022-08-26T19:57:55.457Z,100132.31
2022-08-26T20:00:26.656Z,100122.13
2022-08-26T20:02:56.705Z,100128.81
2022-08-26T20:05:27.633Z,100130.16
2022-08-26T20:07:56.786Z,100124.00
2022-08-26T20:10:27.469Z,100126.53
2022-08-26T20:12:56.521Z,100128.13
2022-08-26T20:15:25.590Z,100129.03
2022-08-26T20:17:58.081Z,100135.25
2022-08-26T20:20:44.642Z,100133.38
2022-08-26T20:23:13.791Z,100141.00
2022-08-26T20:25:45.313Z,100152.00
2022-08-26T20:28:14.480Z,100153.63
2022-08-26T20:30:43.584Z,100152.06
2022-08-26T20:33:13.103Z,100145.59
2022-08-26T20:35:42.265Z,100150.31
2022-08-26T20:38:12.042Z,100145.88
2022-08-26T20:40:42.324Z,100149.25
2022-08-26T20:43:12.914Z,100146.09
2022-08-26T20:45:42.345Z,100147.81
2022-08-26T20:48:11.726Z,100143.59
2022-08-26T20:50:41.001Z,100147.63
2022-08-26T20:53:10.081Z,100146.84
2022-08-26T20:55:39.184Z,100145.50
2022-08-26T20:58:08.434Z,100142.59
2022-08-26T21:00:40.562Z,100142.25
2022-08-26T21:03:09.669Z,100142.25
2022-08-26T21:05:38.763Z,100142.06
2022-08-26T21:08:07.859Z,100133.41
2022-08-26T21:10:37.838Z,100136.56
2022-08-26T21:13:07.521Z,100141.31
2022-08-26T21:15:37.726Z,100137.75
2022-08-26T21:18:09.173Z,100137.91
2022-08-26T21:20:38.893Z,100134.56
2022-08-26T21:23:08.095Z,100140.88
2022-08-26T21:25:37.211Z,100137.91
2022-08-26T21:28:06.443Z,100137.38
2022-08-26T21:30:39.038Z,100141.56
2022-08-26T21:33:09.876Z,100142.00
2022-08-26T21:35:38.963Z,100139.41
2022-08-26T21:38:08.039Z,100140.88
2022-08-26T21:40:37.257Z,100140.34
2022-08-26T21:43:06.343Z,100147.38
2022-08-26T21:45:40.806Z,100137.78
2022-08-26T21:48:11.590Z,100142.31
2022-08-26T21:50:40.986Z,100145.75
2022-08-26T21:53:10.449Z,100149.19
2022-08-26T21:55:39.652Z,100145.63
2022-08-26T21:58:08.799Z,100144.34
2022-08-26T22:00:38.041Z,100146.75
2022-08-26T22:03:07.129Z,100146.97
2022-08-26T22:05:44.254Z,100147.75
2022-08-26T22:08:13.997Z,100142.81
2022-08-26T22:10:44.065Z,100148.78
2022-08-26T22:13:15.372Z,100141.66
2022-08-26T22:15:45.021Z,100144.13
2022-08-26T22:18:14.305Z,100145.88
2022-08-26T22:20:45.624Z,100145.53
2022-08-26T22:23:14.998Z,100144.47
2022-08-26T22:25:44.097Z,100154.72
2022-08-26T22:28:13.406Z,100154.56
2022-08-26T22:30:43.814Z,100159.19
2022-08-26T22:33:13.139Z,100153.56
2022-08-26T22:35:45.174Z,100144.13
2022-08-26T22:38:14.477Z,100147.53
2022-08-26T22:40:46.095Z,100143.34
2022-08-26T22:43:15.659Z,100147.00
2022-08-26T22:45:47.037Z,100153.03
2022-08-26T22:48:18.088Z,100149.66
2022-08-26T22:50:49.458Z,100137.16
2022-08-26T22:53:19.885Z,100141.53
2022-08-26T22:55:49.100Z,100136.91
2022-08-26T22:58:19.873Z,100141.69
2022-08-26T23:00:50.005Z,100140.78
2022-08-26T23:03:20.475Z,100140.16
2022-08-26T23:05:51.377Z,100142.03
2022-08-26T23:08:23.494Z,100143.78
2022-08-26T23:10:53.312Z,100141.06
2022-08-26T23:13:22.338Z,100140.56
2022-08-26T23:16:00.373Z,100143.69
2022-08-26T23:18:29.678Z,100134.97
2022-08-26T23:21:00.093Z,100144.47
2022-08-26T23:23:29.209Z,100131.72
2022-08-26T23:25:58.565Z,100135.94
2022-08-26T23:28:27.768Z,100135.34
2022-08-26T23:30:56.817Z,100132.88
2022-08-26T23:33:45.830Z,100139.41
2022-08-26T23:36:18.066Z,100139.81
2022-08-26T23:38:52.611Z,100149.69
2022-08-26T23:41:22.901Z,100147.28
2022-08-26T23:43:52.786Z,100145.75
2022-08-26T23:46:22.150Z,100148.88
2022-08-26T23:48:51.251Z,100150.72
2022-08-26T23:51:39.249Z,100150.13
2022-08-26T23:54:08.288Z,100145.03
2022-08-26T23:56:38.884Z,100137.16
2022-08-26T23:59:08.622Z,100146.91
